Ochlockonee Bay, Florida
Current Conditions -  °F | °C
As of 7:53 AM on Tuesday 21 Oct 2014 (Local Time) from KTLH Reporting Station
Light Fog Light Fog  
Wind Chill: 59°   Ceiling: Unl
Heat Index: 59°   Visibility: 10mi
Dew Point: 54°   Wind: 0mph
Humidity: 83%   Direction: NA
Pressure: 29.98"   Gusts: NA
Location:  30.0223°N, 84.3911°W
Report Text: KTLH 211153Z 00000KT 10SM BCFG FEW200 15/12 A2998 RMK AO2 SLP152 T01500122 10178 20139 52007 $
Loading
Personal Weather Stations






























Interactive Weather Map
Tropical Storm Tracking
New forecast layout! Learn more

10-Day Weather Forecast

Advertisements
Track Severe Weather on mobile